Time;durP1;ratioP1;P1;durP2;ratioP2;P2;SDS_P1;SDS_P2;PMS_P1;PMS_P2;Temp;Humidity;BMP_temperature;BMP_pressure;BME280_temperature;BME280_humidity;BME280_pressure;Samples;Min_cycle;Max_cycle;Signal;HPM_P1;HPM_P2
2023/10/11 00:00:56;;;;;;;15.48;5.68;;;;;;;21.91;51.97;101247.91;5015464;28;20049;-69
2023/10/11 00:05:53;;;;;;;19.08;6.35;;;;;;;21.80;52.24;101247.72;5034327;28;20048;-69
2023/10/11 00:08:29;;;;;;;17.90;6.53;;;;;;;21.77;53.21;101250.44;5016885;28;20054;-70
2023/10/11 00:10:59;;;;;;;22.27;7.00;;;;;;;21.78;52.30;101257.69;4997752;28;20049;-68
2023/10/11 00:13:32;;;;;;;20.55;6.35;;;;;;;21.67;53.20;101265.88;4982203;28;20053;-70
2023/10/11 00:16:08;;;;;;;16.40;5.97;;;;;;;21.71;52.37;101252.75;5015306;28;20042;-69
2023/10/11 00:18:37;;;;;;;21.40;6.57;;;;;;;21.65;53.18;101259.06;4996854;28;20058;-70
2023/10/11 00:21:11;;;;;;;14.45;6.32;;;;;;;21.57;54.02;101260.09;4980479;28;20052;-70
2023/10/11 00:23:42;;;;;;;18.55;6.45;;;;;;;21.61;54.06;101266.59;5014644;28;20045;-70
2023/10/11 00:26:09;;;;;;;18.50;5.57;;;;;;;21.55;54.15;101268.88;4996929;28;20054;-69
2023/10/11 00:28:43;;;;;;;15.50;6.13;;;;;;;21.65;53.87;101265.47;5030196;28;20404;-69
2023/10/11 00:31:16;;;;;;;13.48;6.50;;;;;;;21.74;53.31;101263.19;5014934;28;20057;-70
2023/10/11 00:33:45;;;;;;;19.40;6.60;;;;;;;21.76;53.90;101269.25;4996404;28;20492;-69
2023/10/11 00:36:15;;;;;;;18.67;6.22;;;;;;;21.63;53.56;101267.03;5014824;28;20562;-70
2023/10/11 00:38:47;;;;;;;17.27;6.07;;;;;;;21.78;53.95;101263.28;4998163;28;20065;-69
2023/10/11 00:41:17;;;;;;;14.40;5.72;;;;;;;21.75;53.71;101264.84;5008954;28;20057;-69
2023/10/11 00:43:52;;;;;;;13.93;5.50;;;;;;;21.84;52.25;101254.22;4978884;28;20410;-70
2023/10/11 00:46:24;;;;;;;16.58;6.00;;;;;;;22.07;52.30;101260.56;5014040;28;20058;-69
2023/10/11 00:48:53;;;;;;;16.40;5.85;;;;;;;21.78;53.44;101257.69;4996589;28;20049;-67
2023/10/11 00:51:29;;;;;;;16.42;6.03;;;;;;;21.61;53.81;101252.56;5014568;28;20057;-69
2023/10/11 00:54:00;;;;;;;17.52;6.60;;;;;;;21.44;54.57;101253.91;5012516;28;20390;-68
2023/10/11 00:56:31;;;;;;;21.42;6.60;;;;;;;21.39;54.84;101244.97;4985470;28;20046;-69
2023/10/11 00:59:08;;;;;;;14.55;6.13;;;;;;;21.34;54.63;101234.88;5004280;28;20054;-70
2023/10/11 01:01:36;;;;;;;17.00;6.22;;;;;;;21.42;54.68;101236.63;5016021;28;20057;-69
2023/10/11 01:04:06;;;;;;;19.95;5.93;;;;;;;21.18;55.04;101239.81;5033336;28;20058;-69
2023/10/11 01:06:34;;;;;;;;;;;;;;;21.16;55.49;101228.16;5023723;28;20493;-69
2023/10/11 01:09:17;;;;;;;16.63;5.88;;;;;;;21.38;54.58;101226.53;5014483;28;19932;-69
2023/10/11 01:11:47;;;;;;;15.02;5.80;;;;;;;21.51;53.43;101227.97;4977071;28;20057;-69
2023/10/11 01:14:15;;;;;;;13.02;5.97;;;;;;;21.32;54.66;101236.44;5014497;28;20056;-68
2023/10/11 01:16:43;;;;;;;26.10;6.28;;;;;;;21.24;54.55;101241.09;5013813;28;20053;-69
2023/10/11 01:19:11;;;;;;;13.98;6.32;;;;;;;21.27;54.51;101231.16;4997090;28;20057;-69
2023/10/11 01:21:39;;;;;;;13.13;5.82;;;;;;;21.63;53.30;101225.78;5013623;28;20056;-69
2023/10/11 01:24:10;;;;;;;16.50;5.85;;;;;;;21.66;52.62;101215.78;4992135;28;20046;-67
2023/10/11 01:26:38;;;;;;;13.40;5.75;;;;;;;21.62;54.21;101215.75;4989198;28;20065;-66
2023/10/11 01:29:05;;;;;;;12.25;5.35;;;;;;;21.74;52.74;101220.34;4996889;28;20049;-67
2023/10/11 01:31:40;;;;;;;16.33;6.32;;;;;;;21.55;53.53;101215.63;4985694;28;20054;-66
2023/10/11 01:34:13;;;;;;;14.60;5.80;;;;;;;21.24;54.58;101213.09;4976600;28;20061;-66
2023/10/11 01:36:42;;;;;;;17.98;6.90;;;;;;;21.34;54.76;101209.66;4977100;28;20038;-67
2023/10/11 01:39:11;;;;;;;17.23;6.13;;;;;;;21.24;55.25;101216.69;4993905;28;20061;-66
2023/10/11 01:41:42;;;;;;;27.60;10.88;;;;;;;21.38;55.08;101207.72;5013901;28;20053;-66
2023/10/11 01:44:10;;;;;;;22.77;12.45;;;;;;;21.43;54.48;101204.59;5013843;28;20057;-67
2023/10/11 01:46:39;;;;;;;30.33;15.45;;;;;;;21.33;54.25;101194.03;5012927;28;20446;-66
2023/10/11 01:49:08;;;;;;;;;;;;;;;21.28;54.14;101188.75;5018488;28;20579;-66
2023/10/11 01:51:46;;;;;;;19.70;6.00;;;;;;;21.59;53.99;101185.66;5012503;28;19928;-65
2023/10/11 01:54:22;;;;;;;17.98;6.80;;;;;;;21.18;54.46;101194.97;5013498;28;20387;-66
2023/10/11 01:56:52;;;;;;;15.32;6.78;;;;;;;21.15;55.68;101187.28;4995610;28;20050;-66
2023/10/11 01:59:20;;;;;;;15.90;6.47;;;;;;;21.08;55.09;101178.75;4980155;28;20054;-66
2023/10/11 02:01:58;;;;;;;16.23;6.35;;;;;;;21.12;55.36;101182.44;4996894;28;20065;-66
2023/10/11 02:04:28;;;;;;;19.13;6.78;;;;;;;21.11;54.48;101187.22;5012945;28;20057;-65
2023/10/11 02:06:57;;;;;;;;;;;;;;;21.04;54.66;101178.69;5012848;28;20053;-67
2023/10/11 02:09:24;;;;;;;14.35;7.15;;;;;;;21.02;55.79;101175.50;5016723;28;19956;-67
2023/10/11 02:11:54;;;;;;;13.70;6.32;;;;;;;21.01;55.85;101171.06;5017074;28;20060;-66
2023/10/11 02:14:23;;;;;;;19.98;6.60;;;;;;;20.98;54.95;101170.94;5004695;28;20125;-66
2023/10/11 02:16:54;;;;;;;16.15;6.13;;;;;;;20.96;55.34;101164.91;5015233;28;20137;-66
2023/10/11 02:19:23;;;;;;;;;;;;;;;20.80;55.73;101175.44;5017984;28;20053;-66
2023/10/11 02:21:54;;;;;;;;;;;;;;;20.89;55.90;101165.59;5000975;28;19933;-65
2023/10/11 02:24:25;;;;;;;17.58;6.85;;;;;;;20.77;55.50;101160.19;5016979;28;19928;-65
2023/10/11 02:26:54;;;;;;;16.17;6.78;;;;;;;20.84;55.50;101168.72;4999396;28;20064;-66
2023/10/11 02:29:25;;;;;;;14.20;6.22;;;;;;;20.94;55.31;101165.28;5015515;28;20455;-66
2023/10/11 02:31:53;;;;;;;17.33;6.47;;;;;;;20.95;55.27;101161.31;5016947;28;20060;-65
2023/10/11 02:34:21;;;;;;;17.73;6.70;;;;;;;21.11;55.20;101164.03;5031637;28;20294;-66
2023/10/11 02:37:03;;;;;;;16.20;6.13;;;;;;;21.03;55.51;101165.06;5016104;28;20049;-66
2023/10/11 02:39:34;;;;;;;16.83;6.55;;;;;;;20.98;55.71;101168.16;5001576;28;20065;-67
2023/10/11 02:42:05;;;;;;;16.17;6.70;;;;;;;20.87;55.90;101153.94;5015707;28;20042;-67
2023/10/11 02:44:39;;;;;;;15.50;6.57;;;;;;;20.93;56.04;101158.09;4973906;28;20048;-67
2023/10/11 02:47:10;;;;;;;16.15;6.38;;;;;;;20.95;56.06;101152.09;5016772;28;20049;-66
2023/10/11 02:49:38;;;;;;;14.55;7.15;;;;;;;20.83;56.32;101153.09;5025155;28;20056;-66
2023/10/11 02:52:08;;;;;;;18.10;6.82;;;;;;;20.84;56.37;101165.91;5018624;28;20413;-66
2023/10/11 02:54:39;;;;;;;14.82;6.72;;;;;;;20.42;57.33;101178.25;5016675;28;20123;-66
2023/10/11 02:57:18;;;;;;;14.45;6.65;;;;;;;20.17;57.32;101176.94;5012136;28;20069;-67
2023/10/11 02:59:50;;;;;;;18.48;6.32;;;;;;;20.37;58.09;101184.97;4997121;28;20046;-66
2023/10/11 03:02:20;;;;;;;17.20;6.45;;;;;;;20.47;57.45;101184.34;4996959;28;20064;-68
2023/10/11 03:04:49;;;;;;;16.85;6.90;;;;;;;20.54;57.44;101189.31;5002353;28;20062;-68
2023/10/11 03:07:23;;;;;;;19.58;7.93;;;;;;;20.52;57.51;101184.06;4984141;28;20049;-69
2023/10/11 03:09:54;;;;;;;12.75;6.30;;;;;;;20.48;58.07;101183.19;5015954;28;20063;-66
2023/10/11 03:12:31;;;;;;;13.98;6.00;;;;;;;20.61;57.71;101181.03;5030910;28;20832;-67
2023/10/11 03:15:09;;;;;;;11.55;6.55;;;;;;;20.70;57.08;101179.63;4999550;28;20045;-66
2023/10/11 03:17:43;;;;;;;17.38;6.30;;;;;;;20.69;57.13;101172.44;4982045;28;20126;-65
2023/10/11 03:20:27;;;;;;;20.00;7.70;;;;;;;20.66;57.40;101166.75;4982482;28;20057;-70
2023/10/11 03:22:59;;;;;;;11.88;6.75;;;;;;;20.70;57.40;101164.81;5016038;28;20520;-69
2023/10/11 03:25:32;;;;;;;17.13;7.28;;;;;;;20.60;57.96;101160.66;5016238;28;20066;-69
2023/10/11 03:27:59;;;;;;;23.20;7.43;;;;;;;20.63;57.56;101159.09;5016141;28;20054;-66
2023/10/11 03:30:27;;;;;;;21.95;7.45;;;;;;;20.44;57.71;101171.13;4993369;28;20049;-66
2023/10/11 03:32:55;;;;;;;18.70;7.47;;;;;;;20.38;58.03;101161.38;5015750;28;20531;-66
2023/10/11 03:35:25;;;;;;;17.38;7.07;;;;;;;20.30;58.25;101162.44;5015353;28;20050;-66
2023/10/11 03:37:59;;;;;;;;;;;;;;;20.27;58.39;101168.75;5016565;28;20058;-66
2023/10/11 03:40:54;;;;;;;15.63;6.55;;;;;;;20.22;58.84;101174.66;4998403;28;19929;-69
2023/10/11 03:43:23;;;;;;;15.00;7.07;;;;;;;20.44;58.48;101168.31;4994916;28;20065;-68
2023/10/11 03:45:51;;;;;;;17.45;6.88;;;;;;;20.30;58.56;101161.59;4984273;28;20057;-69
2023/10/11 03:48:20;;;;;;;14.30;6.72;;;;;;;20.33;58.39;101153.28;4978013;28;20496;-65
2023/10/11 03:50:47;;;;;;;16.33;7.23;;;;;;;20.38;58.36;101149.41;5032078;28;20053;-66
2023/10/11 03:53:15;;;;;;;19.27;7.13;;;;;;;20.29;59.17;101148.81;5016683;28;20057;-65
2023/10/11 03:55:47;;;;;;;20.83;7.38;;;;;;;20.33;58.67;101142.09;5002871;28;20049;-69
2023/10/11 04:03:35;;;;;;;15.38;6.78;;;;;;;20.22;59.03;101129.06;5013540;28;20485;-66
2023/10/11 04:06:13;;;;;;;17.58;6.53;;;;;;;20.32;58.66;101134.88;5015599;28;20053;-66
2023/10/11 04:08:43;;;;;;;16.80;6.80;;;;;;;20.32;58.75;101140.47;5014854;28;20065;-66
2023/10/11 04:11:16;;;;;;;15.05;6.85;;;;;;;20.31;58.37;101138.06;4997626;28;20050;-67
2023/10/11 04:13:46;;;;;;;20.17;6.60;;;;;;;20.33;58.31;101136.50;4997649;28;20050;-66
2023/10/11 04:16:14;;;;;;;16.45;6.80;;;;;;;20.26;58.05;101135.56;4998854;28;20057;-66
2023/10/11 04:18:43;;;;;;;14.65;6.68;;;;;;;20.29;58.65;101137.63;5015096;28;20065;-65
2023/10/11 04:23:39;;;;;;;16.83;6.60;;;;;;;20.24;58.18;101143.50;5013239;28;20072;-67
2023/10/11 04:26:08;;;;;;;18.50;6.47;;;;;;;20.30;58.30;101144.81;4997123;28;20049;-66
2023/10/11 04:28:41;;;;;;;16.60;6.35;;;;;;;20.30;58.00;101136.44;4998040;28;20050;-66
2023/10/11 04:33:54;;;;;;;16.20;6.40;;;;;;;19.73;58.13;101139.97;5013826;28;20058;-69
2023/10/11 04:36:22;;;;;;;16.63;6.85;;;;;;;19.78;59.99;101146.09;5015389;28;20061;-69
2023/10/11 04:38:50;;;;;;;13.80;6.35;;;;;;;19.99;59.79;101148.53;5013554;28;20058;-68
2023/10/11 04:41:20;;;;;;;17.55;6.68;;;;;;;20.13;58.83;101140.47;5014904;28;20037;-70
2023/10/11 04:43:50;;;;;;;15.07;6.60;;;;;;;19.99;59.14;101132.56;5013777;28;20050;-69
2023/10/11 04:46:18;;;;;;;16.60;6.40;;;;;;;19.93;59.02;101141.59;4986739;28;20861;-66
2023/10/11 04:48:48;;;;;;;18.70;6.32;;;;;;;20.02;59.00;101142.19;5009673;28;20473;-67
2023/10/11 04:56:52;;;;;;;17.15;6.57;;;;;;;19.88;59.63;101161.47;5019247;28;19921;-65
2023/10/11 05:04:15;;;;;;;19.02;5.85;;;;;;;19.97;59.50;101168.47;4990995;28;20077;-67
2023/10/11 05:06:44;;;;;;;13.10;6.53;;;;;;;20.09;59.42;101171.16;5014517;28;20408;-67
2023/10/11 05:11:58;;;;;;;16.95;7.05;;;;;;;20.03;59.37;101169.78;5013488;28;20366;-67
2023/10/11 05:14:28;;;;;;;19.95;6.68;;;;;;;19.95;59.50;101164.41;5011948;28;20056;-66
2023/10/11 05:19:44;;;;;;;20.15;7.03;;;;;;;19.76;58.83;101154.03;5013948;28;20460;-67
2023/10/11 05:22:48;;;;;;;16.33;6.63;;;;;;;19.74;59.87;101158.34;4980713;28;20061;-67
2023/10/11 05:33:41;;;;;;;18.98;7.03;;;;;;;19.71;59.99;101171.06;5005928;28;20062;-67
2023/10/11 05:52:17;;;;;;;17.88;8.02;;;;;;;19.78;59.56;101171.25;5025938;28;20053;-67
2023/10/11 05:54:45;;;;;;;16.42;7.38;;;;;;;19.70;59.50;101161.06;5000243;28;20811;-67
2023/10/11 05:57:18;;;;;;;21.52;8.05;;;;;;;19.87;59.31;101171.03;4997175;28;20050;-67
2023/10/11 05:59:47;;;;;;;21.23;7.40;;;;;;;19.85;59.95;101170.59;5002157;28;20054;-67
2023/10/11 06:02:18;;;;;;;24.13;7.57;;;;;;;19.72;59.63;101180.25;4989584;28;20061;-68
2023/10/11 06:04:46;;;;;;;20.40;7.68;;;;;;;19.68;59.37;101182.16;4999494;28;20293;-66
2023/10/11 06:07:16;;;;;;;21.05;9.20;;;;;;;19.47;59.80;101182.47;5003819;28;20054;-67
2023/10/11 06:09:45;;;;;;;20.88;8.07;;;;;;;19.67;62.63;101186.94;5033009;28;20046;-67
2023/10/11 06:12:22;;;;;;;18.45;7.18;;;;;;;19.77;67.67;101186.38;5016743;28;20050;-68
2023/10/11 06:14:51;;;;;;;21.65;7.10;;;;;;;19.72;70.58;101194.22;5017430;28;20050;-67
2023/10/11 06:17:32;;;;;;;22.35;6.97;;;;;;;19.70;73.26;101207.78;5016786;28;20055;-66
2023/10/11 06:20:23;;;;;;;21.02;7.47;;;;;;;19.57;71.24;101204.28;5017352;28;20046;-72
2023/10/11 06:22:49;;;;;;;25.45;7.03;;;;;;;19.66;72.28;101206.88;5016573;28;20054;-70
2023/10/11 06:25:23;;;;;;;29.58;7.28;;;;;;;19.66;68.17;101209.66;5017044;28;20050;-70
2023/10/11 06:30:27;;;;;;;18.25;7.00;;;;;;;19.66;67.46;101218.06;4996559;28;20717;-66
2023/10/11 06:32:56;;;;;;;25.92;7.65;;;;;;;19.62;66.78;101211.56;5003506;28;20054;-64
2023/10/11 06:35:24;;;;;;;17.20;7.47;;;;;;;19.75;67.65;101215.88;4979840;28;20046;-64
2023/10/11 06:37:55;;;;;;;18.20;7.55;;;;;;;19.79;66.69;101212.00;5010543;28;20058;-66
2023/10/11 06:43:09;;;;;;;21.38;7.57;;;;;;;19.67;65.58;101208.47;4999197;28;20065;-65
2023/10/11 06:45:42;;;;;;;22.25;8.05;;;;;;;19.63;65.65;101216.00;5011933;28;20050;-67
2023/10/11 06:48:13;;;;;;;26.38;8.52;;;;;;;19.51;64.98;101218.88;5004332;28;20057;-65
2023/10/11 06:50:41;;;;;;;25.95;7.20;;;;;;;19.61;64.93;101209.94;5018663;28;20057;-66
2023/10/11 06:53:09;;;;;;;29.48;13.57;;;;;;;19.68;64.13;101205.31;5007957;28;20046;-65
2023/10/11 06:55:47;;;;;;;22.88;8.73;;;;;;;19.60;63.93;101216.69;5005189;28;20053;-68
2023/10/11 06:58:19;;;;;;;22.33;8.02;;;;;;;19.54;63.67;101213.38;5012319;28;20148;-66
2023/10/11 07:00:47;;;;;;;26.08;8.55;;;;;;;19.69;62.91;101215.34;5003192;28;20533;-66
2023/10/11 07:05:56;;;;;;;25.15;8.77;;;;;;;19.80;61.47;101207.22;5003008;28;20073;-63
2023/10/11 07:08:35;;;;;;;26.00;11.80;;;;;;;19.81;61.28;101218.03;5007121;28;20044;-67
2023/10/11 07:11:10;;;;;;;30.42;9.32;;;;;;;19.83;60.51;101214.88;4998544;28;20532;-66
2023/10/11 07:14:00;;;;;;;28.63;8.30;;;;;;;19.80;60.68;101213.63;4998414;28;20058;-66
2023/10/11 07:16:29;;;;;;;25.48;8.43;;;;;;;19.76;60.10;101212.72;5006781;28;20038;-66
2023/10/11 07:18:59;;;;;;;29.77;8.40;;;;;;;19.76;60.75;101212.72;4978323;28;20039;-64
2023/10/11 07:21:48;;;;;;;;;;;;;;;19.85;60.93;101216.13;5014876;28;20058;-64
2023/10/11 07:27:09;;;;;;;24.48;8.57;;;;;;;19.77;61.62;101221.94;4980686;28;20042;-64
2023/10/11 07:29:42;;;;;;;23.92;7.97;;;;;;;19.89;61.10;101217.00;5000565;28;20049;-66
2023/10/11 07:32:18;;;;;;;23.58;9.27;;;;;;;19.93;60.81;101223.50;4978256;28;20065;-64
2023/10/11 07:34:48;;;;;;;25.63;8.23;;;;;;;19.87;60.80;101221.38;5002025;28;20054;-67
2023/10/11 07:37:19;;;;;;;27.35;8.95;;;;;;;19.77;61.14;101219.13;4985860;28;20046;-66
2023/10/11 07:39:47;;;;;;;23.30;8.57;;;;;;;19.76;61.21;101215.53;5011748;28;20413;-66
2023/10/11 07:42:19;;;;;;;26.20;8.05;;;;;;;19.91;60.77;101219.47;4972707;28;20038;-66
2023/10/11 07:44:50;;;;;;;22.35;7.70;;;;;;;19.97;60.38;101227.22;4998528;28;20050;-66
2023/10/11 07:47:18;;;;;;;24.58;8.55;;;;;;;20.16;60.12;101232.06;5008712;28;20045;-65
2023/10/11 07:49:49;;;;;;;26.58;7.88;;;;;;;20.26;59.77;101227.88;5013261;28;20050;-65
2023/10/11 07:52:19;;;;;;;23.98;8.10;;;;;;;20.38;59.04;101222.16;4984420;28;20046;-65
2023/10/11 07:54:47;;;;;;;22.67;9.15;;;;;;;20.53;57.84;101232.47;4994259;28;20060;-66
2023/10/11 07:57:15;;;;;;;30.05;9.68;;;;;;;20.61;57.63;101231.41;5014694;28;20053;-66
2023/10/11 07:59:44;;;;;;;30.02;8.95;;;;;;;20.56;57.55;101234.50;5006149;28;20050;-65
2023/10/11 08:02:31;;;;;;;20.15;7.50;;;;;;;20.71;56.82;101242.84;5012165;28;20056;-65
2023/10/11 08:04:59;;;;;;;33.42;7.72;;;;;;;20.74;56.70;101238.50;4997470;28;20508;-65
2023/10/11 08:07:28;;;;;;;;;;;;;;;20.59;56.25;101242.19;5011638;28;20057;-67
2023/10/11 08:09:56;;;;;;;25.40;7.65;;;;;;;20.70;56.21;101238.44;5004811;28;19929;-65
2023/10/11 08:12:23;;;;;;;24.90;7.95;;;;;;;20.79;55.41;101238.19;5001210;28;20054;-64
2023/10/11 08:14:56;;;;;;;22.77;7.80;;;;;;;20.96;55.50;101238.56;4994686;28;20502;-66
2023/10/11 08:17:29;;;;;;;25.02;6.90;;;;;;;21.14;54.75;101236.94;4989844;28;20065;-66
2023/10/11 08:19:57;;;;;;;27.08;7.53;;;;;;;21.36;53.53;101240.13;5000886;28;20041;-65
2023/10/11 08:22:24;;;;;;;20.45;6.60;;;;;;;21.45;52.99;101230.28;5014852;28;20061;-65
2023/10/11 08:24:56;;;;;;;27.05;6.30;;;;;;;21.43;52.78;101218.63;5011403;28;20077;-66
2023/10/11 08:30:07;;;;;;;21.17;5.85;;;;;;;21.51;53.16;101216.75;5005752;28;20054;-66
2023/10/11 08:32:42;;;;;;;22.25;5.70;;;;;;;21.44;51.49;101213.84;4998388;28;20041;-65
2023/10/11 08:35:31;;;;;;;16.60;6.10;;;;;;;21.49;52.30;101214.34;4994267;28;20051;-65
2023/10/11 08:38:04;;;;;;;19.20;5.63;;;;;;;21.33;50.73;101208.03;5014148;28;20045;-65
2023/10/11 08:40:35;;;;;;;21.30;5.68;;;;;;;21.40;51.45;101212.94;5014321;28;20060;-65
2023/10/11 08:43:04;;;;;;;19.73;5.60;;;;;;;21.51;51.05;101217.56;4994547;28;20291;-64
2023/10/11 08:45:42;;;;;;;21.63;5.93;;;;;;;21.56;50.63;101208.84;4999643;28;20046;-65
2023/10/11 08:48:11;;;;;;;22.05;5.28;;;;;;;21.58;48.96;101214.06;4993544;28;20050;-65
2023/10/11 08:50:44;;;;;;;16.13;5.63;;;;;;;21.72;49.55;101215.13;5008607;28;20049;-64
2023/10/11 08:53:13;;;;;;;15.98;4.97;;;;;;;21.54;49.22;101216.00;4998336;28;20057;-65
2023/10/11 08:55:40;;;;;;;17.45;5.68;;;;;;;21.75;49.78;101221.97;5009616;28;20080;-64
2023/10/11 08:58:27;;;;;;;16.60;5.78;;;;;;;21.86;49.10;101218.16;5020255;28;20050;-65
2023/10/11 09:00:56;;;;;;;23.80;5.32;;;;;;;21.70;47.68;101219.47;4979323;28;20057;-65
2023/10/11 09:03:26;;;;;;;22.13;5.35;;;;;;;21.94;48.03;101217.09;4996827;28;20054;-65
2023/10/11 09:05:59;;;;;;;17.27;5.13;;;;;;;22.02;47.02;101209.59;5011699;28;20522;-65
2023/10/11 09:08:31;;;;;;;19.85;5.72;;;;;;;21.81;47.17;101214.88;5001451;28;20046;-66
2023/10/11 09:11:31;;;;;;;13.02;5.20;;;;;;;21.87;45.62;101228.19;5001700;28;20060;-64
2023/10/11 09:14:28;;;;;;;13.68;4.82;;;;;;;21.67;44.50;101223.03;4982846;28;20087;-65
2023/10/11 09:17:02;;;;;;;13.18;4.93;;;;;;;22.09;44.39;101215.28;5003222;28;20050;-64
2023/10/11 09:19:32;;;;;;;17.92;4.63;;;;;;;22.26;46.01;101218.34;4962679;28;20054;-64
2023/10/11 09:22:05;;;;;;;21.73;5.25;;;;;;;22.20;46.23;101213.44;5004347;28;20054;-64
2023/10/11 09:24:41;;;;;;;16.58;4.93;;;;;;;22.19;44.85;101218.25;4996110;28;20046;-67
2023/10/11 09:29:42;;;;;;;15.23;4.75;;;;;;;22.21;45.87;101210.25;4998255;28;20046;-65
2023/10/11 09:32:13;;;;;;;12.10;5.17;;;;;;;22.24;45.97;101212.31;5000533;28;20050;-64
2023/10/11 09:34:43;;;;;;;16.30;5.18;;;;;;;22.37;46.19;101209.28;4987976;28;20414;-65
2023/10/11 09:37:11;;;;;;;17.77;5.43;;;;;;;22.44;47.35;101212.97;4995145;28;20057;-65
2023/10/11 09:39:42;;;;;;;21.83;4.88;;;;;;;22.41;46.54;101207.31;4995721;28;20407;-65
2023/10/11 09:42:12;;;;;;;19.55;5.97;;;;;;;22.32;47.34;101204.78;5003430;28;20386;-64
2023/10/11 09:44:43;;;;;;;18.90;5.25;;;;;;;22.33;46.81;101207.22;5002164;28;20057;-66
2023/10/11 09:47:16;;;;;;;16.38;4.78;;;;;;;22.27;47.30;101205.13;4988879;28;20046;-67
2023/10/11 09:49:46;;;;;;;19.40;4.85;;;;;;;22.12;46.98;101208.94;5006401;28;20413;-66
2023/10/11 09:52:17;;;;;;;24.10;5.22;;;;;;;22.60;47.07;101215.59;4975284;28;20508;-66
2023/10/11 09:54:50;;;;;;;21.08;5.63;;;;;;;22.82;47.26;101220.31;4997917;28;20061;-65
2023/10/11 09:57:31;;;;;;;20.25;5.95;;;;;;;22.56;47.07;101214.78;4995288;28;20058;-67
2023/10/11 09:59:59;;;;;;;;;;;;;;;22.58;46.73;101218.78;5001126;28;20040;-64
2023/10/11 10:02:38;;;;;;;22.48;5.70;;;;;;;22.74;47.47;101212.97;5004534;28;20373;-65
2023/10/11 10:05:06;;;;;;;20.73;5.30;;;;;;;22.69;47.83;101208.50;4974796;28;20464;-64
2023/10/11 10:07:44;;;;;;;19.27;4.90;;;;;;;22.76;47.60;101207.78;4995244;28;20050;-64
2023/10/11 10:10:15;;;;;;;19.65;5.30;;;;;;;23.00;46.15;101204.44;4986764;28;20062;-65
2023/10/11 10:12:43;;;;;;;15.70;4.70;;;;;;;22.98;46.31;101206.84;4995795;28;20049;-67
2023/10/11 10:15:14;;;;;;;19.05;4.85;;;;;;;23.05;47.43;101201.25;5026671;28;20053;-65
2023/10/11 10:18:12;;;;;;;21.25;5.70;;;;;;;23.26;46.21;101195.84;4984716;28;20062;-66
2023/10/11 10:20:41;;;;;;;18.70;6.05;;;;;;;23.49;44.81;101195.69;4983727;28;20050;-65
2023/10/11 10:23:15;;;;;;;15.27;5.50;;;;;;;23.44;46.41;101191.25;5004514;28;20171;-67
2023/10/11 10:25:48;;;;;;;19.00;6.30;;;;;;;23.44;47.08;101188.44;5012369;28;20049;-65
2023/10/11 10:28:45;;;;;;;18.17;6.10;;;;;;;23.31;47.18;101192.72;4998518;28;20053;-65
2023/10/11 10:31:16;;;;;;;17.65;5.80;;;;;;;23.35;46.58;101190.75;4983297;28;20066;-65
2023/10/11 10:33:52;;;;;;;19.58;6.00;;;;;;;23.36;47.19;101189.56;5002931;28;20508;-64
2023/10/11 10:36:28;;;;;;;20.23;5.60;;;;;;;23.24;46.09;101189.84;4986625;28;20054;-66
2023/10/11 10:41:41;;;;;;;25.75;8.15;;;;;;;23.39;47.25;101188.78;4984558;28;20057;-64
2023/10/11 10:44:13;;;;;;;23.08;8.32;;;;;;;23.62;46.27;101186.56;5000421;28;20421;-65
2023/10/11 10:46:50;;;;;;;29.17;6.88;;;;;;;23.49;46.47;101181.63;5013763;28;20045;-63
2023/10/11 10:49:20;;;;;;;24.77;7.38;;;;;;;23.65;47.14;101176.53;4984946;28;20062;-68
2023/10/11 10:51:47;;;;;;;20.10;7.45;;;;;;;23.72;46.93;101174.59;5015664;28;20104;-68
2023/10/11 10:54:17;;;;;;;24.15;7.30;;;;;;;23.70;45.94;101176.16;4970789;28;20054;-68
2023/10/11 10:56:46;;;;;;;19.85;7.75;;;;;;;23.70;45.12;101174.16;4999912;28;20418;-69
2023/10/11 10:59:20;;;;;;;27.55;6.47;;;;;;;23.79;46.76;101168.19;4978774;28;20059;-70
2023/10/11 11:01:50;;;;;;;19.52;5.60;;;;;;;23.95;45.03;101168.69;4986801;28;20049;-66
2023/10/11 11:04:22;;;;;;;24.45;6.70;;;;;;;23.82;46.18;101161.78;4977272;28;20058;-67
2023/10/11 11:06:52;;;;;;;17.40;5.82;;;;;;;23.74;45.80;101157.31;4995787;28;20084;-66
2023/10/11 11:09:25;;;;;;;16.40;5.37;;;;;;;23.92;44.26;101158.25;4977818;28;20069;-65
2023/10/11 11:12:14;;;;;;;27.77;11.63;;;;;;;23.72;46.00;101154.91;5002419;28;20311;-65
2023/10/11 11:15:00;;;;;;;25.48;13.55;;;;;;;23.95;45.72;101152.63;4982036;28;20054;-67
2023/10/11 11:17:46;;;;;;;20.77;8.13;;;;;;;23.94;45.09;101148.19;4996190;28;20059;-72
2023/10/11 11:22:52;;;;;;;24.55;7.15;;;;;;;24.12;45.67;101137.06;5002555;28;20054;-70
2023/10/11 11:25:27;;;;;;;29.33;12.25;;;;;;;23.97;45.73;101133.31;4988951;28;20141;-70
2023/10/11 11:28:05;;;;;;;36.30;10.00;;;;;;;23.82;45.76;101122.38;5001365;28;20057;-71
2023/10/11 11:30:36;;;;;;;22.10;7.43;;;;;;;23.79;44.72;101129.63;4996988;28;20065;-69
2023/10/11 11:33:20;;;;;;;27.98;5.97;;;;;;;24.04;44.30;101124.94;5000323;28;20046;-71
2023/10/11 11:35:54;;;;;;;21.30;6.45;;;;;;;24.10;46.09;101126.19;4988358;28;20069;-70
2023/10/11 11:38:22;;;;;;;18.77;5.70;;;;;;;23.94;44.64;101124.88;5003438;28;20058;-70
2023/10/11 11:40:59;;;;;;;19.02;6.43;;;;;;;24.15;43.88;101134.25;4999487;28;20054;-70
2023/10/11 11:43:33;;;;;;;18.67;6.30;;;;;;;24.05;43.97;101135.03;5000279;28;20065;-70
2023/10/11 11:46:03;;;;;;;25.17;6.63;;;;;;;24.31;43.72;101129.09;5006761;28;20271;-70
2023/10/11 11:48:40;;;;;;;16.73;5.13;;;;;;;24.56;43.62;101120.75;5004333;28;20061;-70
2023/10/11 11:51:16;;;;;;;20.67;5.30;;;;;;;24.82;41.88;101099.88;4993048;28;20308;-69
2023/10/11 11:53:44;;;;;;;13.10;4.95;;;;;;;24.71;42.46;101094.22;4983580;28;20057;-70
2023/10/11 11:56:12;;;;;;;17.70;5.70;;;;;;;24.74;42.53;101087.78;4988605;28;20046;-70
2023/10/11 11:58:45;;;;;;;16.98;5.95;;;;;;;24.64;41.87;101080.09;4995517;28;20046;-71
2023/10/11 12:01:17;;;;;;;15.68;5.90;;;;;;;24.83;41.06;101070.50;4994178;28;20054;-72
2023/10/11 12:03:54;;;;;;;23.80;7.13;;;;;;;24.87;41.12;101076.94;4994750;28;20058;-71
2023/10/11 12:06:22;;;;;;;24.30;9.82;;;;;;;24.93;42.47;101061.25;4998760;28;20065;-70
2023/10/11 12:08:58;;;;;;;15.98;6.70;;;;;;;25.01;41.33;101065.69;4996770;28;20061;-70
2023/10/11 12:11:29;;;;;;;18.30;8.88;;;;;;;25.08;41.38;101060.03;5014719;28;20053;-71
2023/10/11 12:13:57;;;;;;;16.95;7.97;;;;;;;25.17;40.79;101058.44;4997002;28;20054;-70
2023/10/11 12:16:25;;;;;;;23.77;6.20;;;;;;;25.38;40.77;101044.34;4997017;28;20046;-70
2023/10/11 12:19:01;;;;;;;19.15;5.93;;;;;;;25.27;40.94;101040.69;4996985;28;20116;-71
2023/10/11 12:21:33;;;;;;;14.77;4.65;;;;;;;25.28;41.28;101033.03;5014427;28;20056;-70
2023/10/11 12:24:01;;;;;;;13.15;5.30;;;;;;;25.31;40.66;101032.22;4994914;28;20062;-71
2023/10/11 12:26:33;;;;;;;21.88;9.38;;;;;;;25.26;41.99;101036.25;5000711;28;20045;-70
2023/10/11 12:29:04;;;;;;;12.45;4.50;;;;;;;25.25;39.27;101025.38;4962528;28;20058;-69
2023/10/11 12:31:31;;;;;;;21.95;5.30;;;;;;;25.23;40.02;101031.41;4979868;28;20050;-70
2023/10/11 12:33:59;;;;;;;13.15;4.97;;;;;;;25.34;39.88;101026.59;5001396;28;20058;-70
2023/10/11 12:36:28;;;;;;;15.77;5.05;;;;;;;25.36;39.47;101034.63;4997834;28;20054;-69
2023/10/11 12:38:57;;;;;;;14.57;4.40;;;;;;;25.42;39.60;101025.38;5014640;28;20054;-70
2023/10/11 12:41:24;;;;;;;16.65;5.10;;;;;;;25.24;40.17;101030.22;4996142;28;20292;-70
2023/10/11 12:43:52;;;;;;;18.95;5.35;;;;;;;25.18;39.88;101020.56;5014812;28;20061;-70
2023/10/11 12:46:19;;;;;;;15.80;4.60;;;;;;;25.40;39.98;101024.19;5005408;28;20058;-71
2023/10/11 12:48:54;;;;;;;16.48;4.68;;;;;;;25.23;40.61;101030.59;5001806;28;20046;-69
2023/10/11 12:51:24;;;;;;;14.95;4.38;;;;;;;25.22;39.87;101021.38;4994508;28;20057;-70
2023/10/11 12:53:54;;;;;;;17.40;4.63;;;;;;;25.42;39.94;101024.56;4981092;28;20049;-70
2023/10/11 12:56:23;;;;;;;11.32;4.80;;;;;;;25.45;40.38;101021.72;5009807;28;20049;-70